sensor_id;sensor_type;location;lat;lon;timestamp;temperature;humidity
38604;DHT22;24924;50.054;8.790;2023-10-08T00:01:15;17.40;99.90
38604;DHT22;24924;50.054;8.790;2023-10-08T00:03:43;17.40;99.90
38604;DHT22;24924;50.054;8.790;2023-10-08T00:06:15;17.20;99.90
38604;DHT22;24924;50.054;8.790;2023-10-08T00:08:40;17.30;99.90
38604;DHT22;24924;50.054;8.790;2023-10-08T00:11:28;17.30;99.90
38604;DHT22;24924;50.054;8.790;2023-10-08T00:13:56;17.40;99.90
38604;DHT22;24924;50.054;8.790;2023-10-08T00:16:22;17.40;99.90
38604;DHT22;24924;50.054;8.790;2023-10-08T00:18:48;17.30;99.90
38604;DHT22;24924;50.054;8.790;2023-10-08T00:21:21;17.40;99.90
38604;DHT22;24924;50.054;8.790;2023-10-08T00:23:52;17.50;99.90
38604;DHT22;24924;50.054;8.790;2023-10-08T00:26:21;17.50;99.90
38604;DHT22;24924;50.054;8.790;2023-10-08T00:28:58;17.40;99.90
38604;DHT22;24924;50.054;8.790;2023-10-08T00:32:09;17.50;99.90
38604;DHT22;24924;50.054;8.790;2023-10-08T00:34:40;17.40;99.90
38604;DHT22;24924;50.054;8.790;2023-10-08T00:37:10;17.40;99.90
38604;DHT22;24924;50.054;8.790;2023-10-08T00:39:37;17.40;99.90
38604;DHT22;24924;50.054;8.790;2023-10-08T00:42:05;17.50;99.90
38604;DHT22;24924;50.054;8.790;2023-10-08T00:44:33;17.50;99.90
38604;DHT22;24924;50.054;8.790;2023-10-08T00:47:04;17.50;99.90
38604;DHT22;24924;50.054;8.790;2023-10-08T00:49:31;17.60;99.90
38604;DHT22;24924;50.054;8.790;2023-10-08T00:52:09;17.50;99.90
38604;DHT22;24924;50.054;8.790;2023-10-08T00:54:36;17.40;99.90
38604;DHT22;24924;50.054;8.790;2023-10-08T00:57:27;17.40;99.90
38604;DHT22;24924;50.054;8.790;2023-10-08T00:59:54;17.40;99.90
38604;DHT22;24924;50.054;8.790;2023-10-08T01:02:25;17.50;99.90
38604;DHT22;24924;50.054;8.790;2023-10-08T01:04:55;17.40;99.90
38604;DHT22;24924;50.054;8.790;2023-10-08T01:07:22;17.50;99.90
38604;DHT22;24924;50.054;8.790;2023-10-08T01:09:49;17.50;99.90
38604;DHT22;24924;50.054;8.790;2023-10-08T01:12:24;17.50;99.90
38604;DHT22;24924;50.054;8.790;2023-10-08T01:15:00;17.60;99.90
38604;DHT22;24924;50.054;8.790;2023-10-08T01:20:30;17.50;99.90
38604;DHT22;24924;50.054;8.790;2023-10-08T01:23:25;17.40;99.90
38604;DHT22;24924;50.054;8.790;2023-10-08T01:25:54;17.50;99.90
38604;DHT22;24924;50.054;8.790;2023-10-08T01:28:40;17.50;99.90
38604;DHT22;24924;50.054;8.790;2023-10-08T01:36:09;17.40;99.90
38604;DHT22;24924;50.054;8.790;2023-10-08T01:38:38;17.50;99.90
38604;DHT22;24924;50.054;8.790;2023-10-08T01:43:48;17.40;99.90
38604;DHT22;24924;50.054;8.790;2023-10-08T01:46:19;17.50;99.90
38604;DHT22;24924;50.054;8.790;2023-10-08T01:48:47;17.30;99.90
38604;DHT22;24924;50.054;8.790;2023-10-08T01:51:16;17.40;99.90
38604;DHT22;24924;50.054;8.790;2023-10-08T01:53:54;17.30;99.90
38604;DHT22;24924;50.054;8.790;2023-10-08T01:58:50;17.30;99.90
38604;DHT22;24924;50.054;8.790;2023-10-08T02:01:22;17.10;99.90
38604;DHT22;24924;50.054;8.790;2023-10-08T02:06:14;17.10;99.90
38604;DHT22;24924;50.054;8.790;2023-10-08T02:08:41;17.20;99.90
38604;DHT22;24924;50.054;8.790;2023-10-08T02:16:00;16.80;99.90
38604;DHT22;24924;50.054;8.790;2023-10-08T02:18:27;17.10;99.90
38604;DHT22;24924;50.054;8.790;2023-10-08T02:20:54;17.10;99.90
38604;DHT22;24924;50.054;8.790;2023-10-08T02:23:20;17.00;99.90
38604;DHT22;24924;50.054;8.790;2023-10-08T02:25:46;16.80;99.90
38604;DHT22;24924;50.054;8.790;2023-10-08T02:28:13;17.00;99.90
38604;DHT22;24924;50.054;8.790;2023-10-08T02:33:08;17.00;99.90
38604;DHT22;24924;50.054;8.790;2023-10-08T02:35:44;17.00;99.90
38604;DHT22;24924;50.054;8.790;2023-10-08T02:38:12;17.00;99.90
38604;DHT22;24924;50.054;8.790;2023-10-08T02:40:44;17.10;99.90
38604;DHT22;24924;50.054;8.790;2023-10-08T02:43:13;17.00;99.90
38604;DHT22;24924;50.054;8.790;2023-10-08T02:45:41;17.00;99.90
38604;DHT22;24924;50.054;8.790;2023-10-08T02:48:08;16.80;99.90
38604;DHT22;24924;50.054;8.790;2023-10-08T02:50:39;16.80;99.90
38604;DHT22;24924;50.054;8.790;2023-10-08T02:55:43;17.00;99.90
38604;DHT22;24924;50.054;8.790;2023-10-08T02:58:13;16.90;99.90
38604;DHT22;24924;50.054;8.790;2023-10-08T03:00:47;16.90;99.90
38604;DHT22;24924;50.054;8.790;2023-10-08T03:03:14;17.20;99.90
38604;DHT22;24924;50.054;8.790;2023-10-08T03:05:53;17.10;99.90
38604;DHT22;24924;50.054;8.790;2023-10-08T03:08:23;16.80;99.90
38604;DHT22;24924;50.054;8.790;2023-10-08T03:10:53;16.80;99.90
38604;DHT22;24924;50.054;8.790;2023-10-08T03:13:22;17.00;99.90
38604;DHT22;24924;50.054;8.790;2023-10-08T03:15:48;16.90;99.90
38604;DHT22;24924;50.054;8.790;2023-10-08T03:18:27;17.00;99.90
38604;DHT22;24924;50.054;8.790;2023-10-08T03:21:03;16.90;99.90
38604;DHT22;24924;50.054;8.790;2023-10-08T03:23:46;16.80;99.90
38604;DHT22;24924;50.054;8.790;2023-10-08T03:26:13;16.80;99.90
38604;DHT22;24924;50.054;8.790;2023-10-08T03:29:03;16.80;99.90
38604;DHT22;24924;50.054;8.790;2023-10-08T03:31:42;16.80;99.90
38604;DHT22;24924;50.054;8.790;2023-10-08T03:34:18;16.80;99.90
38604;DHT22;24924;50.054;8.790;2023-10-08T03:36:46;16.90;99.90
38604;DHT22;24924;50.054;8.790;2023-10-08T03:39:13;16.50;99.90
38604;DHT22;24924;50.054;8.790;2023-10-08T03:41:41;16.70;99.90
38604;DHT22;24924;50.054;8.790;2023-10-08T03:44:08;16.70;99.90
38604;DHT22;24924;50.054;8.790;2023-10-08T03:46:40;16.70;99.90
38604;DHT22;24924;50.054;8.790;2023-10-08T03:49:12;16.60;99.90
38604;DHT22;24924;50.054;8.790;2023-10-08T03:51:51;16.60;99.90
38604;DHT22;24924;50.054;8.790;2023-10-08T03:54:19;16.70;99.90
38604;DHT22;24924;50.054;8.790;2023-10-08T03:56:46;16.60;99.90
38604;DHT22;24924;50.054;8.790;2023-10-08T03:59:15;16.70;99.90
38604;DHT22;24924;50.054;8.790;2023-10-08T04:01:58;16.70;99.90
38604;DHT22;24924;50.054;8.790;2023-10-08T04:04:27;16.50;99.90
38604;DHT22;24924;50.054;8.790;2023-10-08T04:07:22;16.50;99.90
38604;DHT22;24924;50.054;8.790;2023-10-08T04:10:27;16.40;99.90
38604;DHT22;24924;50.054;8.790;2023-10-08T04:13:09;16.40;99.90
38604;DHT22;24924;50.054;8.790;2023-10-08T04:15:36;16.40;99.90
38604;DHT22;24924;50.054;8.790;2023-10-08T04:18:08;16.60;99.90
38604;DHT22;24924;50.054;8.790;2023-10-08T04:23:08;16.50;99.90
38604;DHT22;24924;50.054;8.790;2023-10-08T04:25:39;16.60;99.90
38604;DHT22;24924;50.054;8.790;2023-10-08T04:30:39;16.30;99.90
38604;DHT22;24924;50.054;8.790;2023-10-08T04:33:08;16.50;99.90
38604;DHT22;24924;50.054;8.790;2023-10-08T04:35:38;16.50;99.90
38604;DHT22;24924;50.054;8.790;2023-10-08T04:38:14;16.60;99.90
38604;DHT22;24924;50.054;8.790;2023-10-08T04:40:43;16.60;99.90
38604;DHT22;24924;50.054;8.790;2023-10-08T04:43:20;16.50;99.90
38604;DHT22;24924;50.054;8.790;2023-10-08T04:45:54;16.60;99.90
38604;DHT22;24924;50.054;8.790;2023-10-08T04:48:27;16.40;99.90
38604;DHT22;24924;50.054;8.790;2023-10-08T04:50:59;16.50;99.90
38604;DHT22;24924;50.054;8.790;2023-10-08T04:53:29;16.50;99.90
38604;DHT22;24924;50.054;8.790;2023-10-08T04:56:05;16.50;99.90
38604;DHT22;24924;50.054;8.790;2023-10-08T04:58:34;16.40;99.90
38604;DHT22;24924;50.054;8.790;2023-10-08T05:01:07;16.30;99.90
38604;DHT22;24924;50.054;8.790;2023-10-08T05:03:54;16.30;99.90
38604;DHT22;24924;50.054;8.790;2023-10-08T05:06:27;16.40;99.90
38604;DHT22;24924;50.054;8.790;2023-10-08T05:09:14;16.30;99.90
38604;DHT22;24924;50.054;8.790;2023-10-08T05:11:47;15.50;99.90
38604;DHT22;24924;50.054;8.790;2023-10-08T05:14:19;16.20;99.90
38604;DHT22;24924;50.054;8.790;2023-10-08T05:17:07;16.00;99.90
38604;DHT22;24924;50.054;8.790;2023-10-08T05:19:37;16.20;99.90
38604;DHT22;24924;50.054;8.790;2023-10-08T05:22:11;16.20;99.90
38604;DHT22;24924;50.054;8.790;2023-10-08T05:25:03;16.00;99.90
38604;DHT22;24924;50.054;8.790;2023-10-08T05:27:43;16.20;99.90
38604;DHT22;24924;50.054;8.790;2023-10-08T05:30:17;16.10;99.90
38604;DHT22;24924;50.054;8.790;2023-10-08T05:32:55;16.10;99.90
38604;DHT22;24924;50.054;8.790;2023-10-08T05:35:41;16.00;99.90
38604;DHT22;24924;50.054;8.790;2023-10-08T05:38:07;16.10;99.90
38604;DHT22;24924;50.054;8.790;2023-10-08T05:40:50;16.10;99.90
38604;DHT22;24924;50.054;8.790;2023-10-08T05:43:23;16.10;99.90
38604;DHT22;24924;50.054;8.790;2023-10-08T05:46:13;16.10;99.90
38604;DHT22;24924;50.054;8.790;2023-10-08T05:48:54;16.10;99.90
38604;DHT22;24924;50.054;8.790;2023-10-08T05:51:42;16.20;99.90
38604;DHT22;24924;50.054;8.790;2023-10-08T05:59:32;16.10;99.90
38604;DHT22;24924;50.054;8.790;2023-10-08T06:02:06;16.30;99.90
38604;DHT22;24924;50.054;8.790;2023-10-08T06:04:53;16.20;99.90
38604;DHT22;24924;50.054;8.790;2023-10-08T06:07:39;16.10;99.90
38604;DHT22;24924;50.054;8.790;2023-10-08T06:13:09;16.20;99.90
38604;DHT22;24924;50.054;8.790;2023-10-08T06:15:40;16.20;99.90
38604;DHT22;24924;50.054;8.790;2023-10-08T06:18:32;16.00;99.90
38604;DHT22;24924;50.054;8.790;2023-10-08T06:21:00;16.20;99.90
38604;DHT22;24924;50.054;8.790;2023-10-08T06:23:28;16.20;99.90
38604;DHT22;24924;50.054;8.790;2023-10-08T06:25:57;16.30;99.90
38604;DHT22;24924;50.054;8.790;2023-10-08T06:30:54;16.20;99.90
38604;DHT22;24924;50.054;8.790;2023-10-08T06:33:22;16.20;99.90
38604;DHT22;24924;50.054;8.790;2023-10-08T06:35:50;16.30;99.90
38604;DHT22;24924;50.054;8.790;2023-10-08T06:38:32;16.20;99.90
38604;DHT22;24924;50.054;8.790;2023-10-08T06:40:59;16.10;99.90
38604;DHT22;24924;50.054;8.790;2023-10-08T06:43:51;16.20;99.90
38604;DHT22;24924;50.054;8.790;2023-10-08T06:46:29;16.00;99.90
38604;DHT22;24924;50.054;8.790;2023-10-08T06:48:59;16.20;99.90
38604;DHT22;24924;50.054;8.790;2023-10-08T06:53:51;16.10;99.90
38604;DHT22;24924;50.054;8.790;2023-10-08T07:01:21;16.20;99.90
38604;DHT22;24924;50.054;8.790;2023-10-08T07:03:47;16.00;99.90
38604;DHT22;24924;50.054;8.790;2023-10-08T07:06:15;15.80;99.90
38604;DHT22;24924;50.054;8.790;2023-10-08T07:08:52;15.90;99.90
38604;DHT22;24924;50.054;8.790;2023-10-08T07:11:22;16.00;99.90
38604;DHT22;24924;50.054;8.790;2023-10-08T07:16:14;16.00;99.90
38604;DHT22;24924;50.054;8.790;2023-10-08T07:18:43;16.00;99.90
38604;DHT22;24924;50.054;8.790;2023-10-08T07:21:20;16.10;99.90
38604;DHT22;24924;50.054;8.790;2023-10-08T07:23:56;16.40;99.90
38604;DHT22;24924;50.054;8.790;2023-10-08T07:26:29;16.30;99.90
38604;DHT22;24924;50.054;8.790;2023-10-08T07:29:06;16.40;99.90
38604;DHT22;24924;50.054;8.790;2023-10-08T07:31:39;16.50;99.90
38604;DHT22;24924;50.054;8.790;2023-10-08T07:34:08;16.40;99.90
38604;DHT22;24924;50.054;8.790;2023-10-08T07:36:47;16.30;99.90
38604;DHT22;24924;50.054;8.790;2023-10-08T07:39:15;16.60;99.90
38604;DHT22;24924;50.054;8.790;2023-10-08T07:46:50;16.80;99.90
38604;DHT22;24924;50.054;8.790;2023-10-08T07:49:17;16.70;99.90
38604;DHT22;24924;50.054;8.790;2023-10-08T07:54:21;16.60;99.90
38604;DHT22;24924;50.054;8.790;2023-10-08T07:56:48;16.70;99.90
38604;DHT22;24924;50.054;8.790;2023-10-08T07:59:15;16.60;99.90
38604;DHT22;24924;50.054;8.790;2023-10-08T08:01:44;16.50;99.90
38604;DHT22;24924;50.054;8.790;2023-10-08T08:04:11;16.30;99.90
38604;DHT22;24924;50.054;8.790;2023-10-08T08:06:48;16.50;99.90
38604;DHT22;24924;50.054;8.790;2023-10-08T08:09:19;16.50;99.90
38604;DHT22;24924;50.054;8.790;2023-10-08T08:11:46;16.50;99.90
38604;DHT22;24924;50.054;8.790;2023-10-08T08:14:15;16.60;99.90
38604;DHT22;24924;50.054;8.790;2023-10-08T08:21:43;16.90;99.90
38604;DHT22;24924;50.054;8.790;2023-10-08T08:24:13;17.00;99.90
38604;DHT22;24924;50.054;8.790;2023-10-08T08:26:39;17.20;99.90
38604;DHT22;24924;50.054;8.790;2023-10-08T08:29:27;17.20;99.90
38604;DHT22;24924;50.054;8.790;2023-10-08T08:31:55;17.20;99.90
38604;DHT22;24924;50.054;8.790;2023-10-08T08:34:23;17.20;99.90
38604;DHT22;24924;50.054;8.790;2023-10-08T08:36:49;17.00;99.90
38604;DHT22;24924;50.054;8.790;2023-10-08T08:39:16;17.30;99.90
38604;DHT22;24924;50.054;8.790;2023-10-08T08:44:37;17.10;99.90
38604;DHT22;24924;50.054;8.790;2023-10-08T08:47:12;17.40;99.90
38604;DHT22;24924;50.054;8.790;2023-10-08T08:49:46;17.50;99.90
38604;DHT22;24924;50.054;8.790;2023-10-08T08:52:13;17.30;99.90
38604;DHT22;24924;50.054;8.790;2023-10-08T08:54:41;17.30;99.90
38604;DHT22;24924;50.054;8.790;2023-10-08T08:57:08;17.30;99.90
38604;DHT22;24924;50.054;8.790;2023-10-08T08:59:52;17.30;99.90
38604;DHT22;24924;50.054;8.790;2023-10-08T09:02:19;17.50;99.90
38604;DHT22;24924;50.054;8.790;2023-10-08T09:04:47;17.50;99.90
38604;DHT22;24924;50.054;8.790;2023-10-08T09:09:40;17.70;99.90
38604;DHT22;24924;50.054;8.790;2023-10-08T09:12:07;17.70;99.90
38604;DHT22;24924;50.054;8.790;2023-10-08T09:14:36;17.70;99.90
38604;DHT22;24924;50.054;8.790;2023-10-08T09:19:36;17.80;99.90
38604;DHT22;24924;50.054;8.790;2023-10-08T09:22:03;17.80;99.90
38604;DHT22;24924;50.054;8.790;2023-10-08T09:24:37;18.00;99.90
38604;DHT22;24924;50.054;8.790;2023-10-08T09:27:07;18.30;99.90
38604;DHT22;24924;50.054;8.790;2023-10-08T09:29:36;18.40;99.90
38604;DHT22;24924;50.054;8.790;2023-10-08T09:32:06;18.50;99.90
38604;DHT22;24924;50.054;8.790;2023-10-08T09:37:00;18.60;99.90
38604;DHT22;24924;50.054;8.790;2023-10-08T09:39:27;18.50;99.90
38604;DHT22;24924;50.054;8.790;2023-10-08T09:41:55;18.50;99.90
38604;DHT22;24924;50.054;8.790;2023-10-08T09:44:22;18.40;99.90
38604;DHT22;24924;50.054;8.790;2023-10-08T09:47:10;18.50;99.90
38604;DHT22;24924;50.054;8.790;2023-10-08T09:49:53;18.70;99.90
38604;DHT22;24924;50.054;8.790;2023-10-08T09:52:31;18.50;99.90
38604;DHT22;24924;50.054;8.790;2023-10-08T09:55:09;18.60;99.90
38604;DHT22;24924;50.054;8.790;2023-10-08T09:57:38;18.70;99.90
38604;DHT22;24924;50.054;8.790;2023-10-08T10:00:05;18.70;99.90
38604;DHT22;24924;50.054;8.790;2023-10-08T10:02:44;18.70;99.90
38604;DHT22;24924;50.054;8.790;2023-10-08T10:05:19;18.60;99.90
38604;DHT22;24924;50.054;8.790;2023-10-08T10:07:49;18.80;99.90
38604;DHT22;24924;50.054;8.790;2023-10-08T10:10:29;18.80;99.90
38604;DHT22;24924;50.054;8.790;2023-10-08T10:12:59;18.90;99.90
38604;DHT22;24924;50.054;8.790;2023-10-08T10:17:51;19.10;99.90
38604;DHT22;24924;50.054;8.790;2023-10-08T10:22:44;19.10;99.90
38604;DHT22;24924;50.054;8.790;2023-10-08T10:25:11;19.00;99.90
38604;DHT22;24924;50.054;8.790;2023-10-08T10:32:52;17.30;99.90
38604;DHT22;24924;50.054;8.790;2023-10-08T10:37:48;19.60;99.90
38604;DHT22;24924;50.054;8.790;2023-10-08T10:40:21;20.00;99.90
38604;DHT22;24924;50.054;8.790;2023-10-08T10:43:08;19.70;99.90
38604;DHT22;24924;50.054;8.790;2023-10-08T10:45:41;19.70;99.90
38604;DHT22;24924;50.054;8.790;2023-10-08T10:48:13;19.70;99.90
38604;DHT22;24924;50.054;8.790;2023-10-08T10:50:51;19.70;99.90
38604;DHT22;24924;50.054;8.790;2023-10-08T10:53:33;20.20;99.90
38604;DHT22;24924;50.054;8.790;2023-10-08T10:55:59;20.60;99.90
38604;DHT22;24924;50.054;8.790;2023-10-08T10:58:31;21.10;99.90
38604;DHT22;24924;50.054;8.790;2023-10-08T11:01:04;21.60;99.90
38604;DHT22;24924;50.054;8.790;2023-10-08T11:03:33;22.00;99.90
38604;DHT22;24924;50.054;8.790;2023-10-08T11:06:00;22.30;99.90
38604;DHT22;24924;50.054;8.790;2023-10-08T11:08:32;22.60;99.90
38604;DHT22;24924;50.054;8.790;2023-10-08T11:11:01;22.20;99.90
38604;DHT22;24924;50.054;8.790;2023-10-08T11:13:33;21.70;99.90
38604;DHT22;24924;50.054;8.790;2023-10-08T11:16:07;21.60;99.90
38604;DHT22;24924;50.054;8.790;2023-10-08T11:18:34;21.30;99.90
38604;DHT22;24924;50.054;8.790;2023-10-08T11:21:08;21.40;99.90
38604;DHT22;24924;50.054;8.790;2023-10-08T11:23:50;21.20;99.90
38604;DHT22;24924;50.054;8.790;2023-10-08T11:26:24;21.40;99.90
38604;DHT22;24924;50.054;8.790;2023-10-08T11:29:02;21.50;99.90
38604;DHT22;24924;50.054;8.790;2023-10-08T11:31:28;21.10;99.90
38604;DHT22;24924;50.054;8.790;2023-10-08T11:34:03;21.20;99.90
38604;DHT22;24924;50.054;8.790;2023-10-08T11:36:36;21.10;99.90
38604;DHT22;24924;50.054;8.790;2023-10-08T11:39:14;21.50;99.90
38604;DHT22;24924;50.054;8.790;2023-10-08T11:42:02;21.80;99.90
38604;DHT22;24924;50.054;8.790;2023-10-08T11:44:33;22.10;99.90
38604;DHT22;24924;50.054;8.790;2023-10-08T11:47:02;22.10;99.90
38604;DHT22;24924;50.054;8.790;2023-10-08T11:49:40;22.00;99.90
38604;DHT22;24924;50.054;8.790;2023-10-08T11:52:36;22.00;99.90
38604;DHT22;24924;50.054;8.790;2023-10-08T11:55:11;21.90;99.90
38604;DHT22;24924;50.054;8.790;2023-10-08T11:57:53;22.00;99.90
38604;DHT22;24924;50.054;8.790;2023-10-08T12:02:48;21.80;99.90
38604;DHT22;24924;50.054;8.790;2023-10-08T12:07:52;21.50;99.90
38604;DHT22;24924;50.054;8.790;2023-10-08T12:12:50;21.80;99.90
38604;DHT22;24924;50.054;8.790;2023-10-08T12:15:21;22.10;99.90
38604;DHT22;24924;50.054;8.790;2023-10-08T12:17:48;22.10;99.90
38604;DHT22;24924;50.054;8.790;2023-10-08T12:20:37;22.10;99.90
38604;DHT22;24924;50.054;8.790;2023-10-08T12:23:06;22.20;99.90
38604;DHT22;24924;50.054;8.790;2023-10-08T12:25:38;22.10;99.90
38604;DHT22;24924;50.054;8.790;2023-10-08T12:28:05;22.00;99.90
38604;DHT22;24924;50.054;8.790;2023-10-08T12:30:32;21.90;99.90
38604;DHT22;24924;50.054;8.790;2023-10-08T12:32:59;21.80;99.90
38604;DHT22;24924;50.054;8.790;2023-10-08T12:35:26;19.80;99.90
38604;DHT22;24924;50.054;8.790;2023-10-08T12:40:19;22.20;99.90
38604;DHT22;24924;50.054;8.790;2023-10-08T12:42:52;22.20;99.90
38604;DHT22;24924;50.054;8.790;2023-10-08T12:45:18;22.70;99.90
38604;DHT22;24924;50.054;8.790;2023-10-08T12:47:50;22.10;99.90
38604;DHT22;24924;50.054;8.790;2023-10-08T12:50:18;22.00;99.90
38604;DHT22;24924;50.054;8.790;2023-10-08T12:52:49;22.20;99.90
38604;DHT22;24924;50.054;8.790;2023-10-08T12:55:21;22.10;99.90
38604;DHT22;24924;50.054;8.790;2023-10-08T12:57:53;22.10;99.90
38604;DHT22;24924;50.054;8.790;2023-10-08T13:07:57;22.00;99.90
38604;DHT22;24924;50.054;8.790;2023-10-08T13:10:29;22.00;99.90
38604;DHT22;24924;50.054;8.790;2023-10-08T13:12:56;22.10;99.90
38604;DHT22;24924;50.054;8.790;2023-10-08T13:15:23;22.10;99.90
38604;DHT22;24924;50.054;8.790;2023-10-08T13:17:52;22.00;99.90
38604;DHT22;24924;50.054;8.790;2023-10-08T13:20:18;22.20;99.90
38604;DHT22;24924;50.054;8.790;2023-10-08T13:22:44;22.20;99.90
38604;DHT22;24924;50.054;8.790;2023-10-08T13:25:12;22.20;99.90
38604;DHT22;24924;50.054;8.790;2023-10-08T13:27:38;22.00;99.90
38604;DHT22;24924;50.054;8.790;2023-10-08T13:30:08;22.00;99.90
38604;DHT22;24924;50.054;8.790;2023-10-08T13:32:35;22.10;99.90
38604;DHT22;24924;50.054;8.790;2023-10-08T13:35:04;22.20;99.90
38604;DHT22;24924;50.054;8.790;2023-10-08T13:37:34;22.10;99.90
38604;DHT22;24924;50.054;8.790;2023-10-08T13:40:01;22.20;99.90
38604;DHT22;24924;50.054;8.790;2023-10-08T13:44:55;22.60;99.90
38604;DHT22;24924;50.054;8.790;2023-10-08T13:47:25;22.70;99.90
38604;DHT22;24924;50.054;8.790;2023-10-08T13:49:52;22.90;99.90
38604;DHT22;24924;50.054;8.790;2023-10-08T13:52:19;22.80;99.90
38604;DHT22;24924;50.054;8.790;2023-10-08T13:54:46;22.80;99.90
38604;DHT22;24924;50.054;8.790;2023-10-08T13:57:20;22.80;99.90
38604;DHT22;24924;50.054;8.790;2023-10-08T13:59:47;22.90;99.90
38604;DHT22;24924;50.054;8.790;2023-10-08T14:02:14;22.90;99.90
38604;DHT22;24924;50.054;8.790;2023-10-08T14:04:44;22.70;99.90
38604;DHT22;24924;50.054;8.790;2023-10-08T14:07:11;22.70;99.90
38604;DHT22;24924;50.054;8.790;2023-10-08T14:09:47;22.70;99.90
38604;DHT22;24924;50.054;8.790;2023-10-08T14:12:13;22.60;99.90
38604;DHT22;24924;50.054;8.790;2023-10-08T14:19:42;22.10;99.90
38604;DHT22;24924;50.054;8.790;2023-10-08T14:24:51;22.10;99.90
38604;DHT22;24924;50.054;8.790;2023-10-08T14:27:25;22.00;99.90
38604;DHT22;24924;50.054;8.790;2023-10-08T14:29:57;21.80;99.90
38604;DHT22;24924;50.054;8.790;2023-10-08T14:32:27;21.60;99.90
38604;DHT22;24924;50.054;8.790;2023-10-08T14:34:54;21.70;99.90
38604;DHT22;24924;50.054;8.790;2023-10-08T14:37:19;21.50;99.90
38604;DHT22;24924;50.054;8.790;2023-10-08T14:40:04;21.40;99.90
38604;DHT22;24924;50.054;8.790;2023-10-08T14:45:32;21.20;99.90
38604;DHT22;24924;50.054;8.790;2023-10-08T14:48:01;21.20;99.90
38604;DHT22;24924;50.054;8.790;2023-10-08T14:50:28;21.00;99.90
38604;DHT22;24924;50.054;8.790;2023-10-08T14:52:54;21.00;99.90
38604;DHT22;24924;50.054;8.790;2023-10-08T14:55:23;20.90;99.90
38604;DHT22;24924;50.054;8.790;2023-10-08T14:57:49;20.90;99.90
38604;DHT22;24924;50.054;8.790;2023-10-08T15:00:22;20.90;99.90
38604;DHT22;24924;50.054;8.790;2023-10-08T15:02:53;20.90;99.90
38604;DHT22;24924;50.054;8.790;2023-10-08T15:05:22;20.90;99.90
38604;DHT22;24924;50.054;8.790;2023-10-08T15:07:49;20.90;99.90
38604;DHT22;24924;50.054;8.790;2023-10-08T15:10:15;20.90;99.90
38604;DHT22;24924;50.054;8.790;2023-10-08T15:15:09;20.80;99.90
38604;DHT22;24924;50.054;8.790;2023-10-08T15:17:45;20.70;99.90
38604;DHT22;24924;50.054;8.790;2023-10-08T15:20:15;20.70;99.90
38604;DHT22;24924;50.054;8.790;2023-10-08T15:22:42;21.00;99.90
38604;DHT22;24924;50.054;8.790;2023-10-08T15:25:10;20.90;99.90
38604;DHT22;24924;50.054;8.790;2023-10-08T15:27:39;20.70;99.90
38604;DHT22;24924;50.054;8.790;2023-10-08T15:30:08;20.60;99.90
38604;DHT22;24924;50.054;8.790;2023-10-08T15:32:44;20.50;99.90
38604;DHT22;24924;50.054;8.790;2023-10-08T15:35:11;20.50;99.90
38604;DHT22;24924;50.054;8.790;2023-10-08T15:37:38;20.30;99.90
38604;DHT22;24924;50.054;8.790;2023-10-08T15:40:04;20.30;99.90
38604;DHT22;24924;50.054;8.790;2023-10-08T15:42:34;20.40;99.90
38604;DHT22;24924;50.054;8.790;2023-10-08T15:45:01;20.30;99.90
38604;DHT22;24924;50.054;8.790;2023-10-08T15:47:28;20.30;99.90
38604;DHT22;24924;50.054;8.790;2023-10-08T15:52:20;20.20;99.90
38604;DHT22;24924;50.054;8.790;2023-10-08T15:54:48;20.20;99.90
38604;DHT22;24924;50.054;8.790;2023-10-08T15:57:15;20.00;99.90
38604;DHT22;24924;50.054;8.790;2023-10-08T15:59:41;19.90;99.90
38604;DHT22;24924;50.054;8.790;2023-10-08T16:02:06;19.90;99.90
38604;DHT22;24924;50.054;8.790;2023-10-08T16:09:25;19.80;99.90
38604;DHT22;24924;50.054;8.790;2023-10-08T16:14:16;19.60;99.90
38604;DHT22;24924;50.054;8.790;2023-10-08T16:16:43;19.50;99.90
38604;DHT22;24924;50.054;8.790;2023-10-08T16:19:13;19.40;99.90
38604;DHT22;24924;50.054;8.790;2023-10-08T16:21:39;19.30;99.90
38604;DHT22;24924;50.054;8.790;2023-10-08T16:24:05;19.20;99.90
38604;DHT22;24924;50.054;8.790;2023-10-08T16:26:32;19.10;99.90
38604;DHT22;24924;50.054;8.790;2023-10-08T16:28:58;19.10;99.90
38604;DHT22;24924;50.054;8.790;2023-10-08T16:31:24;19.00;99.90
38604;DHT22;24924;50.054;8.790;2023-10-08T16:33:51;18.80;99.90
38604;DHT22;24924;50.054;8.790;2023-10-08T16:36:18;18.70;99.90
38604;DHT22;24924;50.054;8.790;2023-10-08T16:38:45;18.60;99.90
38604;DHT22;24924;50.054;8.790;2023-10-08T16:41:19;18.40;99.90
38604;DHT22;24924;50.054;8.790;2023-10-08T16:46:11;18.20;99.90
38604;DHT22;24924;50.054;8.790;2023-10-08T16:48:36;18.10;99.90
38604;DHT22;24924;50.054;8.790;2023-10-08T16:51:02;18.10;99.90
38604;DHT22;24924;50.054;8.790;2023-10-08T16:53:28;18.00;99.90
38604;DHT22;24924;50.054;8.790;2023-10-08T16:55:55;17.90;99.90
38604;DHT22;24924;50.054;8.790;2023-10-08T16:58:20;17.80;99.90
38604;DHT22;24924;50.054;8.790;2023-10-08T17:00:46;17.80;99.90
38604;DHT22;24924;50.054;8.790;2023-10-08T17:03:13;17.90;99.90
38604;DHT22;24924;50.054;8.790;2023-10-08T17:05:38;17.80;99.90
38604;DHT22;24924;50.054;8.790;2023-10-08T17:08:05;17.70;99.90
38604;DHT22;24924;50.054;8.790;2023-10-08T17:10:32;17.90;99.90
38604;DHT22;24924;50.054;8.790;2023-10-08T17:15:25;17.80;99.90
38604;DHT22;24924;50.054;8.790;2023-10-08T17:20:16;17.70;99.90
38604;DHT22;24924;50.054;8.790;2023-10-08T17:22:45;17.80;99.90
38604;DHT22;24924;50.054;8.790;2023-10-08T17:27:38;17.60;99.90
38604;DHT22;24924;50.054;8.790;2023-10-08T17:30:11;17.50;99.90
38604;DHT22;24924;50.054;8.790;2023-10-08T17:32:40;17.50;99.90
38604;DHT22;24924;50.054;8.790;2023-10-08T17:35:06;17.40;99.90
38604;DHT22;24924;50.054;8.790;2023-10-08T17:37:34;17.40;99.90
38604;DHT22;24924;50.054;8.790;2023-10-08T17:40:06;17.40;99.90
38604;DHT22;24924;50.054;8.790;2023-10-08T17:42:33;17.50;99.90
38604;DHT22;24924;50.054;8.790;2023-10-08T17:52:21;17.10;99.90
38604;DHT22;24924;50.054;8.790;2023-10-08T17:54:47;17.00;99.90
38604;DHT22;24924;50.054;8.790;2023-10-08T17:59:41;16.60;99.90
38604;DHT22;24924;50.054;8.790;2023-10-08T18:04:33;16.50;99.90
38604;DHT22;24924;50.054;8.790;2023-10-08T18:07:00;16.50;99.90
38604;DHT22;24924;50.054;8.790;2023-10-08T18:09:26;16.50;99.90
38604;DHT22;24924;50.054;8.790;2023-10-08T18:11:54;16.50;99.90
38604;DHT22;24924;50.054;8.790;2023-10-08T18:14:22;16.50;99.90
38604;DHT22;24924;50.054;8.790;2023-10-08T18:19:15;16.50;99.90
38604;DHT22;24924;50.054;8.790;2023-10-08T18:21:42;16.50;99.90
38604;DHT22;24924;50.054;8.790;2023-10-08T18:24:11;16.40;99.90
38604;DHT22;24924;50.054;8.790;2023-10-08T18:26:38;16.50;99.90
38604;DHT22;24924;50.054;8.790;2023-10-08T18:29:11;16.40;99.90